• Join FlightAware (Why Join?)
  • Login
  • US Flag 
10:44PM EDT


 

Airport Tracker/Info


-or-


 

Live Flight TrackerFlight Track Log ✈ AWE3418 ✈ 17-Nov-2013 ✈ KCMH - KPHL

Flight Track Log - Related Links

Times and Time Zones

All times are in EST time to prevent confusion due to time zone crossing. See the AWE3418 flight status page for this flight to view local times or setup timezone preferences in your user account.

Time Position Orientation Groundspeed Altitude Reporting Facility
EST Latitude Longitude Course Direction KTS MPH feet Rate Location/Type
04:18PM 40.0039 -82.9131 76° East 167 192 1,200  Level Indianapolis Center
04:20PM 40.0167 -82.9781 284° West 203 234 3,600 2,460 Climbing Indianapolis Center
04:21PM 40.0027 -82.5076 79° East  Level Estimated
04:21PM 40.0811 -82.9936 350° North 287 330 6,400  Level Indianapolis Center
04:22PM 40.0306 -82.3846 73° East  Level FlightAware Approximate
04:22PM 40.1042 -82.8872 74° East 313 360 9,600  Level Indianapolis Center
04:23PM 40.0316 -82.2563 82° East  Level Estimated
04:23PM 40.1081 -82.7650 88° East 332 382 11,500  Level Indianapolis Center
04:24PM 40.0559 -82.1320 76° East  Level FlightAware Approximate
04:24PM 40.1183 -82.6272 84° East 374 430 13,700  Level Indianapolis Center
04:25PM 40.1444 -82.4522 79° East 408 470 16,600 2,580 Climbing Indianapolis Center
04:26PM 40.1697 -82.3033 77° East 417 480 19,100 2,160 Climbing Indianapolis Center
04:27PM 40.1953 -82.1481 78° East 434 499 21,100 1,800 Climbing Indianapolis Center
04:28PM 40.2236 -81.9883 77° East 448 516 22,900 1,560 Climbing Indianapolis Center
04:29PM 40.2322 -81.8239 86° East 452 520 24,300 1,500 Climbing Indianapolis Center
04:30PM 40.2367 -81.6397 88° East 468 539 26,000 1,500 Climbing Indianapolis Center
04:31PM 40.2414 -81.4631 88° East 480 552 27,400 1,140 Climbing Indianapolis Center
04:32PM 40.2447 -81.2817 89° East 492 566 28,400 780 Climbing Indianapolis Center
04:33PM 40.2503 -81.0939 88° East 506 582 29,000 240 Climbing Cleveland Center
04:34PM 40.2533 -80.9122 89° East 503 579 29,000  Level Cleveland Center
04:35PM 40.2572 -80.7303 88° East 503 579 29,000  Level Cleveland Center
04:36PM 40.2603 -80.5475 89° East 505 581 29,000  Level Cleveland Center
04:37PM 40.2678 -80.3667 87° East 505 581 29,000  Level Cleveland Center
04:38PM 40.2753 -80.1544 87° East 499 574 29,000  Level Cleveland Center
04:39PM 40.2808 -79.9806 88° East 493 567 29,000  Level Cleveland Center
04:40PM 40.2869 -79.8047 87° East 491 565 29,000  Level Cleveland Center
04:41PM 40.2936 -79.6286 87° East 489 563 29,000  Level Cleveland Center
04:42PM 40.2983 -79.4528 88° East 486 559 29,000  Level Cleveland Center
04:43PM 40.3050 -79.2511 87° East 482 555 29,000  Level Cleveland Center
04:44PM 40.3100 -79.0769 88° East 483 556 29,000  Level Cleveland Center
04:45PM 40.3147 -78.9044 88° East 481 554 29,000  Level Cleveland Center
04:46PM 40.3178 -78.7314 89° East 480 552 29,000  Level Cleveland Center
04:47PM 40.3161 -78.5242 91° East 479 551 29,000 -360 Level Cleveland Center
04:48PM 40.3158 -78.3525 90° East 477 549 28,300 -840 Descending Cleveland Center
04:49PM 40.3147 -78.1833 90° East 472 543 27,300 -1,440 Descending Cleveland Center
04:50PM 40.3139 -78.0189 90° East 461 531 25,400 -1,140 Descending Cleveland Center
04:51PM 40.3119 -77.8619 91° East 442 509 25,000 -1,080 Descending Cleveland Center
04:52PM 40.3108 -77.7064 90° East 432 497 23,200 -1,920 Descending Cleveland Center
04:53PM 40.3081 -77.5275 91° East 417 480 21,100 -1,080 Descending Cleveland Center
04:54PM 40.3061 -77.3742 91° East 415 478 21,000 -480 Descending New York Center
04:55PM 40.3017 -77.2269 92° East 405 466 20,200 -1,140 Descending New York Center
04:56PM 40.3011 -77.0853 90° East 400 460 18,800 -1,440 Descending New York Center
04:57PM 40.2725 -76.9519 106° East 379 436 17,400 -900 Descending New York Center
04:58PM 40.2442 -76.8189 106° East 384 442 17,000 -300 Descending New York Center
04:59PM 40.2167 -76.7022 107° East 378 435 16,800 -840 Descending New York Center
05:00PM 40.1842 -76.5581 106° East 373 429 15,400 -1,260 Descending New York Center
05:01PM 40.1547 -76.4361 107° East 367 422 14,300 -1,080 Descending New York Center
05:02PM 40.1250 -76.3117 107° East 362 417 13,300 -1,080 Descending New York Center
05:03PM 40.1136 -76.1994 98° East 351 404 12,200 -1,140 Descending New York Center
05:04PM 40.1069 -76.0739 94° East 351 404 11,100 -1,200 Descending New York Center
05:05PM 40.0978 -75.9483 95° East 328 377 9,800 -1,200 Descending New York Center
05:06PM 40.0858 -75.8392 98° East 310 357 8,800 -1,500 Descending New York Center
05:07PM 40.0367 -75.7731 134° Southeast 270 311 6,800 -1,440 Descending New York Center
05:08PM 39.9728 -75.7061 141° Southeast 270 311 6,000 -1,080 Descending New York Center
05:09PM 39.9208 -75.6511 141° Southeast 270 311 4,700 -1,020 Descending New York Center
05:10PM 39.8667 -75.5833 136° Southeast 243 280 4,000 -420 Descending Philadelphia TRACON
05:11PM 39.8167 -75.5333 142° Southeast 185 213 3,900 -540 Descending Philadelphia TRACON
05:12PM 39.8000 -75.4833 113° Southeast 205 236 3,000 -960 Descending Philadelphia TRACON
05:13PM 39.8333 -75.4167 57° Northeast 178 205 2,000 -840 Descending Philadelphia TRACON
05:14PM 39.8500 -75.3667 67° East 185 213 1,400 -720 Descending Philadelphia TRACON
05:15PM 39.8500 -75.3000 90° East 130 150 600 -840 Descending Philadelphia TRACON